Terminal Aerodrome Forecast
Issued by NWS Grand Forks, ND

Home | Current Version | Previous Version | Graphics & Text | Print | Product List | Glossary On
Versions: 1 2 3 4 5 6 7 8 9 10 11 12 13 14 15
682
FTUS43 KFGF 211132
TAFFAR
TAF
KFAR 211132Z 2112/2212 30006KT P6SM BKN090
     FM211600 34007KT P6SM SCT090
     FM220300 VRB03KT P6SM FEW250=

USA.gov is the U.S. government's official web portal to all federal, state and local government web resources and services.